Axis, Alabama
Current Conditions -  °F | °C
As of 5:53 PM on Monday 22 Dec 2014 (Local Time) from KBFM Reporting Station
Light Fog Light Fog  
Wind Chill: 64°   Ceiling: Unl
Heat Index: 64°   Visibility: 7mi
Dew Point: 63°   Wind: 5mph
Humidity: 96%   Direction: 170°S
Pressure: 29.78"   Gusts: NA
Location:  30.93°N, 88.03°W
Report Text: KBFM 222353Z 17004KT 7SM BCFG FEW049 SCT065 18/17 A2978 RMK AO2 SLP083 VIS NE-SE 2 60000 T01780172 10206 20178 53001
Loading
Personal Weather Stations






























Interactive Weather Map New forecast layout! Learn more

10-Day Weather Forecast

Advertisements
Track Severe Weather on mobile